createdAt,value
2023-03-17T00:00:16.772Z,-1.11
2023-03-17T00:05:41.486Z,-1.15
2023-03-17T00:10:46.384Z,-1.16
2023-03-17T00:16:03.825Z,-1.16
2023-03-17T00:21:13.451Z,-1.15
2023-03-17T00:26:19.958Z,-1.14
2023-03-17T00:31:26.278Z,-1.13
2023-03-17T00:36:33.975Z,-1.12
2023-03-17T00:41:40.284Z,-1.15
2023-03-17T00:46:45.065Z,-1.16
2023-03-17T00:51:50.409Z,-1.18
2023-03-17T00:56:54.275Z,-1.20
2023-03-17T01:01:58.374Z,-1.21
2023-03-17T01:07:02.768Z,-1.21
2023-03-17T01:12:12.934Z,-1.20
2023-03-17T01:17:20.676Z,-1.20
2023-03-17T01:22:24.823Z,-1.20
2023-03-17T01:27:29.515Z,-1.19
2023-03-17T01:32:34.305Z,-1.17
2023-03-17T01:37:39.904Z,-1.11
2023-03-17T01:42:54.664Z,-1.04
2023-03-17T01:48:00.358Z,-1.05
2023-03-17T01:53:05.630Z,-1.04
2023-03-17T01:58:10.259Z,-1.05
2023-03-17T02:03:14.678Z,-1.08
2023-03-17T02:08:18.886Z,-1.13
2023-03-17T02:13:24.067Z,-1.20
2023-03-17T02:18:30.077Z,-1.26
2023-03-17T02:23:34.922Z,-1.32
2023-03-17T02:28:39.918Z,-1.37
2023-03-17T02:33:44.238Z,-1.38
2023-03-17T02:38:49.204Z,-1.29
2023-03-17T02:43:54.180Z,-1.21
2023-03-17T02:48:59.127Z,-1.19
2023-03-17T02:54:03.810Z,-1.25
2023-03-17T02:59:08.872Z,-1.34
2023-03-17T03:04:13.825Z,-1.42
2023-03-17T03:09:20.052Z,-1.51
2023-03-17T03:14:25.230Z,-1.59
2023-03-17T03:19:30.293Z,-1.65
2023-03-17T03:24:34.886Z,-1.66
2023-03-17T03:29:38.867Z,-1.65
2023-03-17T03:34:42.981Z,-1.66
2023-03-17T03:39:48.133Z,-1.66
2023-03-17T03:44:54.115Z,-1.61
2023-03-17T03:49:59.207Z,-1.61
2023-03-17T03:55:03.310Z,-1.52
2023-03-17T04:00:09.941Z,-1.41
2023-03-17T04:05:21.401Z,-1.25
2023-03-17T04:10:26.765Z,-1.16
2023-03-17T04:15:31.092Z,-1.10
2023-03-17T04:20:35.812Z,-1.08
2023-03-17T04:25:40.440Z,-1.10
2023-03-17T04:30:46.644Z,-1.20
2023-03-17T04:35:51.740Z,-1.31
2023-03-17T04:40:57.144Z,-1.33
2023-03-17T04:46:01.527Z,-1.35
2023-03-17T04:51:05.626Z,-1.33
2023-03-17T04:56:10.905Z,-1.29
2023-03-17T05:01:14.803Z,-1.29
2023-03-17T05:06:20.166Z,-1.30
2023-03-17T05:11:25.491Z,-1.29
2023-03-17T05:16:29.879Z,-1.31
2023-03-17T05:21:34.698Z,-1.30
2023-03-17T05:26:39.153Z,-1.27
2023-03-17T05:31:44.150Z,-1.21
2023-03-17T05:36:48.320Z,-1.04
2023-03-17T05:41:53.190Z,-0.91
2023-03-17T05:47:00.961Z,-0.81
2023-03-17T05:52:05.797Z,-0.69
2023-03-17T05:57:09.727Z,-0.55
2023-03-17T06:02:14.826Z,-0.42
2023-03-17T06:07:18.724Z,-0.27
2023-03-17T06:12:23.356Z,-0.12
2023-03-17T06:17:27.742Z,0.07
2023-03-17T06:22:33.224Z,0.29
2023-03-17T06:27:38.284Z,0.54
2023-03-17T06:32:42.083Z,0.79
2023-03-17T06:37:49.653Z,1.01
2023-03-17T06:42:55.419Z,1.19
2023-03-17T06:48:00.574Z,1.39
2023-03-17T06:53:07.695Z,1.61
2023-03-17T06:58:13.594Z,1.81
2023-03-17T07:03:18.984Z,1.97
2023-03-17T07:08:23.282Z,2.16
2023-03-17T07:13:27.726Z,2.35
2023-03-17T07:18:34.781Z,2.49
2023-03-17T07:23:39.944Z,2.61
2023-03-17T07:28:43.796Z,2.76
2023-03-17T07:33:48.509Z,2.98
2023-03-17T07:38:52.917Z,3.11
2023-03-17T07:43:58.210Z,3.10
2023-03-17T07:49:02.824Z,3.20
2023-03-17T07:54:07.868Z,3.41
2023-03-17T07:59:12.676Z,3.72
2023-03-17T08:04:17.130Z,3.98
2023-03-17T08:09:24.700Z,4.18
2023-03-17T08:14:29.062Z,4.44
2023-03-17T08:19:33.511Z,4.68
2023-03-17T08:24:40.790Z,4.84
2023-03-17T08:29:49.245Z,4.91
2023-03-17T08:34:54.822Z,5.12
2023-03-17T08:39:59.318Z,5.44
2023-03-17T08:45:04.004Z,5.73
2023-03-17T08:50:11.751Z,6.05
2023-03-17T08:55:16.664Z,6.29
2023-03-17T09:00:21.782Z,6.48
2023-03-17T09:05:26.941Z,6.82
2023-03-17T09:10:31.892Z,7.15
2023-03-17T09:15:36.117Z,7.34
2023-03-17T09:20:40.720Z,7.36
2023-03-17T09:25:45.198Z,7.38
2023-03-17T09:30:48.934Z,7.65
2023-03-17T09:35:55.964Z,8.00
2023-03-17T09:41:31.828Z,8.22
2023-03-17T09:46:59.298Z,8.37
2023-03-17T09:52:04.458Z,8.73
2023-03-17T09:57:16.811Z,8.93
2023-03-17T10:02:28.051Z,9.05
2023-03-17T10:07:59.741Z,9.23
2023-03-17T10:13:25.386Z,9.49
2023-03-17T10:18:53.495Z,9.81
2023-03-17T10:23:58.321Z,9.67
2023-03-17T10:29:06.293Z,9.69
2023-03-17T10:34:22.093Z,9.82
2023-03-17T10:39:29.319Z,10.11
2023-03-17T10:44:57.341Z,10.20
2023-03-17T10:50:32.643Z,10.24
2023-03-17T10:55:44.976Z,10.48
2023-03-17T11:01:22.031Z,10.51
2023-03-17T11:06:41.501Z,10.63
2023-03-17T11:11:50.438Z,10.87
2023-03-17T11:16:56.011Z,10.97
2023-03-17T11:22:14.836Z,11.13
2023-03-17T11:27:34.320Z,11.24
2023-03-17T11:32:56.841Z,11.23
2023-03-17T11:38:24.718Z,11.29
2023-03-17T11:43:50.181Z,11.45
2023-03-17T11:49:24.096Z,11.55
2023-03-17T11:54:54.269Z,11.53
2023-03-17T12:00:17.384Z,11.61
2023-03-17T12:05:25.402Z,11.82
2023-03-17T12:10:45.865Z,11.96
2023-03-17T12:16:38.753Z,12.12
2023-03-17T12:22:00.289Z,12.13
2023-03-17T12:27:06.618Z,12.23
2023-03-17T12:32:13.311Z,12.14
2023-03-17T12:37:19.506Z,12.05
2023-03-17T12:42:39.119Z,12.03
2023-03-17T12:48:20.369Z,12.40
2023-03-17T12:53:49.161Z,12.61
2023-03-17T12:58:55.718Z,12.61
2023-03-17T13:04:22.741Z,12.52
2023-03-17T13:09:39.935Z,12.44
2023-03-17T13:14:47.948Z,12.50
2023-03-17T13:20:40.574Z,12.57
2023-03-17T13:25:53.952Z,12.66
2023-03-17T13:31:16.805Z,12.65
2023-03-17T13:36:32.306Z,12.35
2023-03-17T13:42:15.738Z,12.20
2023-03-17T13:47:24.602Z,12.19
2023-03-17T13:52:33.440Z,12.22
2023-03-17T13:57:38.799Z,12.33
2023-03-17T14:02:43.974Z,12.41
2023-03-17T14:08:01.376Z,12.50
2023-03-17T14:13:25.280Z,12.62
2023-03-17T14:18:34.106Z,12.53
2023-03-17T14:23:37.807Z,12.29
2023-03-17T14:28:42.440Z,12.32
2023-03-17T14:33:46.600Z,12.40
2023-03-17T14:38:52.951Z,12.41
2023-03-17T14:44:01.847Z,12.50
2023-03-17T14:49:21.603Z,12.49
2023-03-17T14:54:30.250Z,12.38
2023-03-17T14:59:37.565Z,12.36
2023-03-17T15:04:53.894Z,12.27
2023-03-17T15:10:02.810Z,12.06
2023-03-17T15:15:23.024Z,11.95
2023-03-17T15:20:29.439Z,11.82
2023-03-17T15:25:37.978Z,11.71
2023-03-17T15:30:48.859Z,11.59
2023-03-17T15:35:53.336Z,11.46
2023-03-17T15:41:04.894Z,11.33
2023-03-17T15:46:22.636Z,11.21
2023-03-17T15:51:27.134Z,11.08
2023-03-17T15:56:31.512Z,10.97
2023-03-17T16:01:37.184Z,10.87
2023-03-17T16:06:42.168Z,10.73
2023-03-17T16:11:46.105Z,10.53
2023-03-17T16:16:49.746Z,10.34
2023-03-17T16:21:55.639Z,10.20
2023-03-17T16:26:59.383Z,10.05
2023-03-17T16:32:03.227Z,9.91
2023-03-17T16:37:15.941Z,9.72
2023-03-17T16:42:25.122Z,9.57
2023-03-17T16:47:30.712Z,9.44
2023-03-17T16:52:35.184Z,9.29
2023-03-17T16:57:39.812Z,9.14
2023-03-17T17:02:49.761Z,8.98
2023-03-17T17:07:57.174Z,8.87
2023-03-17T17:13:02.648Z,8.80
2023-03-17T17:18:19.330Z,8.72
2023-03-17T17:23:27.242Z,8.62
2023-03-17T17:28:32.646Z,8.54
2023-03-17T17:33:37.810Z,8.46
2023-03-17T17:38:42.813Z,8.40
2023-03-17T17:43:51.851Z,8.31
2023-03-17T17:49:03.007Z,8.22
2023-03-17T17:54:08.983Z,8.08
2023-03-17T17:59:15.318Z,7.95
2023-03-17T18:04:21.430Z,7.83
2023-03-17T18:09:31.911Z,7.66
2023-03-17T18:14:37.515Z,7.49
2023-03-17T18:19:45.065Z,7.34
2023-03-17T18:24:50.912Z,7.20
2023-03-17T18:30:05.781Z,7.07
2023-03-17T18:35:14.334Z,6.95
2023-03-17T18:40:22.871Z,6.82
2023-03-17T18:45:30.322Z,6.69
2023-03-17T18:50:37.982Z,6.60
2023-03-17T18:55:52.161Z,6.51
2023-03-17T19:01:03.329Z,6.42
2023-03-17T19:06:16.797Z,6.32
2023-03-17T19:11:27.144Z,6.27
2023-03-17T19:16:34.202Z,6.20
2023-03-17T19:21:48.743Z,6.14
2023-03-17T19:26:55.840Z,6.06
2023-03-17T19:32:01.533Z,5.99
2023-03-17T19:37:09.121Z,5.92
2023-03-17T19:42:15.307Z,5.89
2023-03-17T19:47:24.621Z,5.84
2023-03-17T19:52:31.487Z,5.85
2023-03-17T19:57:38.474Z,5.87
2023-03-17T20:02:44.778Z,5.87
2023-03-17T20:07:53.372Z,5.84
2023-03-17T20:12:59.565Z,5.79
2023-03-17T20:18:05.658Z,5.71
2023-03-17T20:23:13.872Z,5.62
2023-03-17T20:28:19.886Z,5.56
2023-03-17T20:33:27.343Z,5.48
2023-03-17T20:38:37.286Z,5.41
2023-03-17T20:43:46.486Z,5.36
2023-03-17T20:48:59.513Z,5.28
2023-03-17T20:54:05.945Z,5.20
2023-03-17T20:59:13.770Z,5.10
2023-03-17T21:04:21.415Z,5.01
2023-03-17T21:09:27.161Z,4.90
2023-03-17T21:14:33.916Z,4.84
2023-03-17T21:19:51.446Z,4.77
2023-03-17T21:25:05.875Z,4.70
2023-03-17T21:30:33.222Z,4.61
2023-03-17T21:35:52.216Z,4.53
2023-03-17T21:47:08.425Z,4.36
2023-03-17T21:52:35.998Z,4.25
2023-03-17T21:57:56.467Z,4.15
2023-03-17T22:03:08.082Z,4.21
2023-03-17T22:08:28.372Z,4.16
2023-03-17T22:13:43.417Z,4.04
2023-03-17T22:18:56.861Z,3.96
2023-03-17T22:24:18.523Z,3.86
2023-03-17T22:29:35.829Z,3.74
2023-03-17T22:34:47.967Z,3.65
2023-03-17T22:39:53.749Z,3.64
2023-03-17T22:45:00.480Z,3.70
2023-03-17T22:50:11.141Z,3.75
2023-03-17T22:55:19.512Z,3.83
2023-03-17T23:00:26.793Z,3.83
2023-03-17T23:05:31.203Z,3.82
2023-03-17T23:10:34.936Z,3.82
2023-03-17T23:15:39.313Z,3.77
2023-03-17T23:20:43.781Z,3.77
2023-03-17T23:25:48.069Z,3.73
2023-03-17T23:30:53.239Z,3.65
2023-03-17T23:35:57.745Z,3.59
2023-03-17T23:41:02.544Z,3.50
2023-03-17T23:46:06.361Z,3.41
2023-03-17T23:51:12.769Z,3.34
2023-03-17T23:56:16.654Z,3.28
